Station Historical Data
Daily Summary for April 24, 2017 Units:  English    Metric   Both
« Previous Day
Next Day »
Daily Weekly Monthly Yearly Custom
  High: Low: Average:
Temperature: 64.3 °F 36.8 °F 50.5 °F
Dew Point: 48.5 °F 30.5 °F 38.7 °F
Humidity: 79% 52% 65%
Wind Speed: 13.0mph 0.0mph 4.6mph
Wind Gust: 21.0mph - -
Wind- - ENE
Pressure: 30.16 in 30.02 in -
Precipitation: 0.00 in    
Historical Graphs
 
 
Tabular Data for April 24, 2017
Time Temperature Dew Point Pressure Wind Wind Speed Wind Gust Humidity Rainfall Rate (Hourly)
00:00 42.4 °F 32.9 °F 30.08 in Calm     69% 0.00 in
00:05 42.3 °F 32.8 °F 30.09 in Calm     69% 0.00 in
00:10 42.1 °F 33.0 °F 30.09 in Calm     70% 0.00 in
00:15 41.9 °F 33.2 °F 30.09 in Calm     71% 0.00 in
00:20 41.9 °F 33.2 °F 30.09 in Calm     71% 0.00 in
00:25 41.8 °F 33.1 °F 30.09 in Calm     71% 0.00 in
00:30 41.5 °F 32.8 °F 30.09 in Calm     71% 0.00 in
00:35 41.5 °F 33.1 °F 30.09 in Calm     72% 0.00 in
00:40 41.5 °F 33.5 °F 30.09 in Calm     73% 0.00 in
00:45 41.4 °F 33.4 °F 30.09 in Calm     73% 0.00 in
00:50 41.3 °F 33.3 °F 30.09 in Calm     73% 0.00 in
00:55 41.2 °F 33.2 °F 30.09 in Calm     73% 0.00 in
01:00 41.1 °F 33.4 °F 30.09 in Calm     74% 0.00 in
01:05 40.9 °F 33.2 °F 30.10 in Calm     74% 0.00 in
01:10 40.8 °F 33.2 °F 30.09 in Calm     74% 0.00 in
01:15 40.7 °F 33.1 °F 30.09 in Calm     74% 0.00 in
01:20 40.5 °F 33.2 °F 30.09 in Calm     75% 0.00 in
01:25 40.4 °F 33.1 °F 30.09 in Calm     75% 0.00 in
01:30 40.3 °F 33.0 °F 30.09 in Calm     75% 0.00 in
01:35 40.1 °F 33.1 °F 30.09 in Calm     76% 0.00 in
01:40 40.0 °F 33.4 °F 30.09 in SSW 2.0 mph 3.0 mph 77% 0.00 in
01:45 39.9 °F 33.3 °F 30.09 in Calm   3.0 mph 77% 0.00 in
01:50 39.9 °F 33.3 °F 30.09 in Calm     77% 0.00 in
01:55 39.9 °F 33.6 °F 30.09 in Calm     78% 0.00 in
02:00 39.9 °F 33.6 °F 30.09 in Calm     78% 0.00 in
02:05 39.9 °F 33.6 °F 30.09 in Calm     78% 0.00 in
02:10 40.0 °F 33.4 °F 30.09 in Calm   1.0 mph 77% 0.00 in
02:15 40.0 °F 32.7 °F 30.09 in Calm   1.0 mph 75% 0.00 in
02:20 39.7 °F 32.4 °F 30.09 in Calm   1.0 mph 75% 0.00 in
02:25 39.4 °F 32.8 °F 30.09 in Calm     77% 0.00 in
02:30 38.8 °F 32.5 °F 30.09 in SSW 1.0 mph 2.0 mph 78% 0.00 in
02:35 38.7 °F 32.4 °F 30.09 in SSW 2.0 mph 2.0 mph 78% 0.00 in
02:40 38.7 °F 32.4 °F 30.09 in SSW 1.0 mph 2.0 mph 78% 0.00 in
02:45 39.1 °F 32.5 °F 30.09 in Calm     77% 0.00 in
02:50 38.9 °F 32.0 °F 30.09 in Calm     76% 0.00 in
02:55 38.4 °F 31.8 °F 30.09 in Calm     77% 0.00 in
03:00 38.4 °F 32.1 °F 30.08 in Calm     78% 0.00 in
03:05 38.4 °F 32.1 °F 30.09 in Calm     78% 0.00 in
03:10 37.9 °F 31.7 °F 30.09 in West 1.0 mph 2.0 mph 78% 0.00 in
03:15 37.9 °F 31.7 °F 30.09 in West 1.0 mph 2.0 mph 78% 0.00 in
03:20 37.9 °F 31.7 °F 30.09 in Calm     78% 0.00 in
03:25 37.9 °F 31.7 °F 30.09 in Calm     78% 0.00 in
03:30 37.8 °F 31.6 °F 30.09 in Calm     78% 0.00 in
03:35 37.9 °F 31.7 °F 30.09 in Calm     78% 0.00 in
03:40 37.6 °F 31.4 °F 30.09 in Calm     78% 0.00 in
03:45 37.4 °F 31.5 °F 30.09 in Calm     79% 0.00 in
03:50 38.0 °F 32.1 °F 30.09 in Calm     79% 0.00 in
03:55 38.2 °F 31.9 °F 30.09 in Calm     78% 0.00 in
04:00 38.4 °F 31.5 °F 30.09 in Calm     76% 0.00 in
04:05 38.5 °F 31.9 °F 30.09 in Calm     77% 0.00 in
04:10 38.1 °F 31.5 °F 30.09 in Calm     77% 0.00 in
04:15 37.9 °F 31.3 °F 30.10 in Calm     77% 0.00 in
04:20 37.8 °F 31.2 °F 30.10 in Calm     77% 0.00 in
04:25 37.7 °F 31.5 °F 30.10 in Calm     78% 0.00 in
04:30 38.2 °F 31.3 °F 30.10 in Calm     76% 0.00 in
04:35 37.8 °F 31.2 °F 30.10 in Calm     77% 0.00 in
04:40 37.9 °F 31.0 °F 30.10 in Calm     76% 0.00 in
04:45 37.7 °F 30.8 °F 30.10 in Calm     76% 0.00 in
04:50 38.0 °F 31.1 °F 30.10 in Calm     76% 0.00 in
04:55 38.0 °F 30.8 °F 30.10 in Calm     75% 0.00 in
05:00 37.8 °F 30.9 °F 30.10 in Calm     76% 0.00 in
05:05 38.0 °F 31.4 °F 30.10 in Calm     77% 0.00 in
05:10 37.9 °F 31.0 °F 30.11 in Calm     76% 0.00 in
05:15 37.8 °F 30.9 °F 30.11 in Calm     76% 0.00 in
05:20 37.6 °F 31.0 °F 30.11 in Calm     77% 0.00 in
05:25 37.6 °F 31.0 °F 30.11 in Calm     77% 0.00 in
05:30 37.7 °F 31.1 °F 30.11 in Calm     77% 0.00 in
05:35 37.8 °F 30.9 °F 30.11 in Calm     76% 0.00 in
05:40 37.4 °F 30.8 °F 30.11 in Calm     77% 0.00 in
05:45 37.4 °F 30.8 °F 30.11 in Calm     77% 0.00 in
05:50 37.0 °F 30.5 °F 30.12 in Calm     77% 0.00 in
05:55 37.0 °F 30.5 °F 30.12 in Calm     77% 0.00 in
06:00 36.8 °F 30.6 °F 30.12 in Calm     78% 0.00 in
06:05 36.8 °F 30.6 °F 30.12 in Calm     78% 0.00 in
06:10 37.0 °F 30.8 °F 30.12 in Calm     78% 0.00 in
06:15 37.6 °F 31.4 °F 30.12 in Calm     78% 0.00 in
06:20 38.0 °F 31.4 °F 30.12 in Calm     77% 0.00 in
06:25 38.7 °F 31.8 °F 30.12 in ENE 1.0 mph 4.0 mph 76% 0.00 in
06:30 39.0 °F 31.7 °F 30.13 in NE 2.0 mph 5.0 mph 75% 0.00 in
06:35 39.4 °F 31.5 °F 30.13 in ENE 2.0 mph 5.0 mph 73% 0.00 in
06:40 39.6 °F 32.0 °F 30.13 in ENE 2.0 mph 8.0 mph 74% 0.00 in
06:45 40.0 °F 32.4 °F 30.14 in ENE 3.0 mph 8.0 mph 74% 0.00 in
06:50 40.5 °F 32.9 °F 30.14 in ENE 3.0 mph 8.0 mph 74% 0.00 in
06:55 40.8 °F 33.2 °F 30.14 in ENE 3.0 mph 6.0 mph 74% 0.00 in
07:00 41.2 °F 33.5 °F 30.14 in ENE 3.0 mph 7.0 mph 74% 0.00 in
07:05 41.7 °F 34.4 °F 30.14 in NE 3.0 mph 8.0 mph 75% 0.00 in
07:10 42.1 °F 35.1 °F 30.14 in NE 4.0 mph 10.0 mph 76% 0.00 in
07:15 42.4 °F 35.4 °F 30.15 in NE 3.0 mph 12.0 mph 76% 0.00 in
07:20 42.6 °F 35.9 °F 30.15 in East 9.0 mph 10.0 mph 77% 0.00 in
07:25 42.8 °F 36.1 °F 30.15 in ESE 4.0 mph 15.0 mph 77% 0.00 in
07:30 42.9 °F 36.5 °F 30.16 in NE 7.0 mph 15.0 mph 78% 0.00 in
07:40 43.4 °F 37.0 °F 30.15 in NE 6.0 mph 12.0 mph 78% 0.00 in
07:45 43.5 °F 37.1 °F 30.15 in NE 6.0 mph 13.0 mph 78% 0.00 in
07:50 43.8 °F 37.4 °F 30.15 in East 5.0 mph 10.0 mph 78% 0.00 in
07:55 43.9 °F 37.2 °F 30.15 in NE 3.0 mph 15.0 mph 77% 0.00 in
08:00 44.0 °F 37.6 °F 30.15 in NE 7.0 mph 15.0 mph 78% 0.00 in
08:05 44.4 °F 37.6 °F 30.15 in NE 8.0 mph 16.0 mph 77% 0.00 in
08:10 45.0 °F 37.9 °F 30.15 in East 3.0 mph 11.0 mph 76% 0.00 in
08:15 44.6 °F 37.8 °F 30.16 in NE 9.0 mph 14.0 mph 77% 0.00 in
08:20 44.6 °F 37.8 °F 30.16 in NE 6.0 mph 12.0 mph 77% 0.00 in
08:25 45.2 °F 38.1 °F 30.16 in ENE 7.0 mph 10.0 mph 76% 0.00 in
08:30 45.6 °F 38.5 °F 30.16 in NE 7.0 mph 15.0 mph 76% 0.00 in
08:35 45.7 °F 38.2 °F 30.16 in ENE 7.0 mph 15.0 mph 75% 0.00 in
08:40 46.0 °F 38.5 °F 30.15 in ENE 7.0 mph 16.0 mph 75% 0.00 in
08:45 46.7 °F 39.2 °F 30.16 in East 5.0 mph 13.0 mph 75% 0.00 in
08:50 47.0 °F 38.8 °F 30.16 in NE 6.0 mph 14.0 mph 73% 0.00 in
08:55 47.2 °F 39.0 °F 30.16 in East 3.0 mph 17.0 mph 73% 0.00 in
09:00 47.3 °F 39.1 °F 30.16 in ENE 7.0 mph 17.0 mph 73% 0.00 in
09:05 47.8 °F 39.2 °F 30.16 in ENE 7.0 mph 13.0 mph 72% 0.00 in
09:10 47.8 °F 39.2 °F 30.16 in ENE 7.0 mph 13.0 mph 72% 0.00 in
09:15 48.6 °F 40.0 °F 30.16 in NE 6.0 mph 12.0 mph 72% 0.00 in
09:20 48.6 °F 39.6 °F 30.16 in NE 11.0 mph 13.0 mph 71% 0.00 in
09:25 48.4 °F 39.4 °F 30.16 in ENE 7.0 mph 13.0 mph 71% 0.00 in
09:30 49.0 °F 40.4 °F 30.16 in ENE 7.0 mph 14.0 mph 72% 0.00 in
09:35 49.3 °F 39.6 °F 30.16 in NE 6.0 mph 13.0 mph 69% 0.00 in
09:40 49.4 °F 40.0 °F 30.16 in ENE 7.0 mph 13.0 mph 70% 0.00 in
09:45 50.2 °F 40.8 °F 30.16 in ENE 9.0 mph 12.0 mph 70% 0.00 in
09:50 50.2 °F 40.4 °F 30.16 in East 9.0 mph 15.0 mph 69% 0.00 in
09:55 50.6 °F 40.8 °F 30.16 in ENE 7.0 mph 15.0 mph 69% 0.00 in
10:00 51.1 °F 40.9 °F 30.16 in ENE 7.0 mph 13.0 mph 68% 0.00 in
10:05 51.2 °F 40.6 °F 30.15 in ENE 7.0 mph 13.0 mph 67% 0.00 in
10:10 51.4 °F 40.8 °F 30.16 in ENE 7.0 mph 13.0 mph 67% 0.00 in
10:15 51.8 °F 40.8 °F 30.16 in ENE 7.0 mph 13.0 mph 66% 0.00 in
10:20 52.1 °F 42.2 °F 30.15 in ENE 6.0 mph 13.0 mph 69% 0.00 in
10:25 52.6 °F 41.9 °F 30.15 in ENE 6.0 mph 13.0 mph 67% 0.00 in
10:30 53.2 °F 41.7 °F 30.15 in NE 9.0 mph 13.0 mph 65% 0.00 in
10:35 53.6 °F 42.1 °F 30.15 in East 2.0 mph 12.0 mph 65% 0.00 in
10:40 54.3 °F 42.4 °F 30.15 in NE 5.0 mph 12.0 mph 64% 0.00 in
10:45 54.2 °F 42.7 °F 30.14 in NE 6.0 mph 11.0 mph 65% 0.00 in
10:50 54.4 °F 42.5 °F 30.15 in NE 6.0 mph 11.0 mph 64% 0.00 in
10:55 54.7 °F 43.2 °F 30.15 in NE 6.0 mph 13.0 mph 65% 0.00 in
11:00 55.8 °F 43.0 °F 30.15 in ENE 5.0 mph 13.0 mph 62% 0.00 in
11:05 56.1 °F 42.8 °F 30.14 in ENE 5.0 mph 11.0 mph 61% 0.00 in
11:10 55.7 °F 42.5 °F 30.14 in ENE 6.0 mph 11.0 mph 61% 0.00 in
11:15 56.6 °F 44.1 °F 30.14 in NE 6.0 mph 11.0 mph 63% 0.00 in
11:20 57.3 °F 44.0 °F 30.14 in NE 5.0 mph 10.0 mph 61% 0.00 in
11:25 57.8 °F 42.7 °F 30.14 in NE 5.0 mph 13.0 mph 57% 0.00 in
11:30 57.4 °F 42.3 °F 30.14 in NE 3.0 mph 12.0 mph 57% 0.00 in
11:35 58.2 °F 43.9 °F 30.13 in East 5.0 mph 11.0 mph 59% 0.00 in
11:40 58.1 °F 43.8 °F 30.13 in ENE 5.0 mph 11.0 mph 59% 0.00 in
11:45 58.8 °F 43.1 °F 30.13 in NE 6.0 mph 10.0 mph 56% 0.00 in
11:50 59.1 °F 43.4 °F 30.13 in ENE 6.0 mph 12.0 mph 56% 0.00 in
11:55 59.7 °F 44.0 °F 30.13 in ENE 6.0 mph 12.0 mph 56% 0.00 in
12:00 59.8 °F 44.1 °F 30.13 in ENE 7.0 mph 14.0 mph 56% 0.00 in
12:05 59.5 °F 43.8 °F 30.13 in NE 8.0 mph 14.0 mph 56% 0.00 in
12:10 60.2 °F 43.0 °F 30.13 in NNE 8.0 mph 11.0 mph 53% 0.00 in
12:15 60.3 °F 43.1 °F 30.13 in NNE 5.0 mph 13.0 mph 53% 0.00 in
12:20 60.8 °F 43.6 °F 30.13 in ENE 6.0 mph 13.0 mph 53% 0.00 in
12:25 60.8 °F 43.6 °F 30.12 in NE 6.0 mph 12.0 mph 53% 0.00 in
12:30 60.9 °F 43.6 °F 30.12 in NE 7.0 mph 14.0 mph 53% 0.00 in
12:35 60.8 °F 43.6 °F 30.12 in NE 8.0 mph 14.0 mph 53% 0.00 in
12:40 61.3 °F 45.0 °F 30.12 in NNE 7.0 mph 14.0 mph 55% 0.00 in
12:45 61.8 °F 45.0 °F 30.12 in NE 6.0 mph 14.0 mph 54% 0.00 in
12:50 61.9 °F 44.6 °F 30.11 in NE 7.0 mph 14.0 mph 53% 0.00 in
12:55 62.0 °F 46.6 °F 30.11 in North 6.0 mph 12.0 mph 57% 0.00 in
13:00 62.5 °F 45.1 °F 30.11 in ENE 5.0 mph 14.0 mph 53% 0.00 in
13:05 62.6 °F 46.7 °F 30.11 in NE 7.0 mph 12.0 mph 56% 0.00 in
13:10 62.6 °F 46.7 °F 30.11 in ENE 9.0 mph 11.0 mph 56% 0.00 in
13:15 63.0 °F 47.5 °F 30.11 in NE 6.0 mph 13.0 mph 57% 0.00 in
13:20 62.9 °F 47.0 °F 30.10 in NE 6.0 mph 13.0 mph 56% 0.00 in
13:25 63.1 °F 48.5 °F 30.10 in NE 7.0 mph 13.0 mph 59% 0.00 in
13:30 63.1 °F 47.1 °F 30.10 in NE 7.0 mph 16.0 mph 56% 0.00 in
13:35 63.0 °F 47.1 °F 30.10 in NE 6.0 mph 16.0 mph 56% 0.00 in
13:40 63.2 °F 47.7 °F 30.10 in NE 9.0 mph 12.0 mph 57% 0.00 in
13:45 63.1 °F 46.7 °F 30.10 in NE 6.0 mph 16.0 mph 55% 0.00 in
13:50 62.9 °F 47.0 °F 30.10 in NE 11.0 mph 18.0 mph 56% 0.00 in
13:55 62.7 °F 45.8 °F 30.10 in NE 8.0 mph 15.0 mph 54% 0.00 in
14:00 63.2 °F 47.2 °F 30.09 in NE 8.0 mph 11.0 mph 56% 0.00 in
14:05 63.4 °F 46.5 °F 30.09 in NNE 5.0 mph 16.0 mph 54% 0.00 in
14:10 63.6 °F 48.1 °F 30.09 in East 6.0 mph 11.0 mph 57% 0.00 in
14:15 63.6 °F 47.1 °F 30.09 in NE 7.0 mph 14.0 mph 55% 0.00 in
14:20 63.7 °F 46.7 °F 30.09 in NE 7.0 mph 15.0 mph 54% 0.00 in
14:25 63.8 °F 47.3 °F 30.09 in NE 7.0 mph 15.0 mph 55% 0.00 in
14:30 64.0 °F 47.0 °F 30.09 in NE 7.0 mph 14.0 mph 54% 0.00 in
14:35 63.7 °F 46.2 °F 30.08 in NE 7.0 mph 15.0 mph 53% 0.00 in
14:40 63.5 °F 46.6 °F 30.08 in ENE 7.0 mph 15.0 mph 54% 0.00 in
14:45 63.9 °F 46.9 °F 30.08 in NE 8.0 mph 16.0 mph 54% 0.00 in
14:50 63.8 °F 46.8 °F 30.08 in NE 7.0 mph 16.0 mph 54% 0.00 in
14:55 64.3 °F 46.3 °F 30.08 in NE 9.0 mph 15.0 mph 52% 0.00 in
15:00 64.0 °F 46.0 °F 30.08 in NE 8.0 mph 15.0 mph 52% 0.00 in
15:05 64.0 °F 47.5 °F 30.08 in NE 7.0 mph 14.0 mph 55% 0.00 in
15:10 63.3 °F 46.4 °F 30.08 in NE 7.0 mph 17.0 mph 54% 0.00 in
15:15 63.2 °F 46.8 °F 30.07 in NE 9.0 mph 17.0 mph 55% 0.00 in
15:20 63.7 °F 46.2 °F 30.07 in NE 8.0 mph 19.0 mph 53% 0.00 in
15:25 63.2 °F 46.3 °F 30.06 in NE 8.0 mph 19.0 mph 54% 0.00 in
15:30 63.1 °F 47.6 °F 30.06 in NE 9.0 mph 18.0 mph 57% 0.00 in
15:35 63.5 °F 46.6 °F 30.06 in NE 8.0 mph 18.0 mph 54% 0.00 in
15:40 63.4 °F 46.9 °F 30.06 in NE 9.0 mph 16.0 mph 55% 0.00 in
15:45 62.9 °F 46.0 °F 30.06 in NNE 4.0 mph 16.0 mph 54% 0.00 in
15:50 63.1 °F 45.7 °F 30.05 in NE 8.0 mph 16.0 mph 53% 0.00 in
15:55 62.6 °F 46.2 °F 30.06 in NE 6.0 mph 13.0 mph 55% 0.00 in
16:00 63.1 °F 45.7 °F 30.05 in NE 5.0 mph 16.0 mph 53% 0.00 in
16:05 62.4 °F 45.5 °F 30.05 in NNE 5.0 mph 16.0 mph 54% 0.00 in
16:10 62.3 °F 45.9 °F 30.05 in NNE 8.0 mph 15.0 mph 55% 0.00 in
16:15 62.0 °F 44.7 °F 30.06 in NE 8.0 mph 15.0 mph 53% 0.00 in
16:20 62.3 °F 45.9 °F 30.05 in NE 8.0 mph 15.0 mph 55% 0.00 in
16:25 62.0 °F 44.2 °F 30.05 in NE 7.0 mph 18.0 mph 52% 0.00 in
16:30 62.1 °F 45.2 °F 30.05 in NE 8.0 mph 18.0 mph 54% 0.00 in
16:35 61.6 °F 44.3 °F 30.05 in NE 8.0 mph 14.0 mph 53% 0.00 in
16:40 61.5 °F 44.7 °F 30.05 in NNE 5.0 mph 15.0 mph 54% 0.00 in
16:50 62.4 °F 45.5 °F 30.04 in NE 7.0 mph 14.0 mph 54% 0.00 in
16:55 62.3 °F 45.4 °F 30.04 in ENE 7.0 mph 11.0 mph 54% 0.00 in
17:00 62.2 °F 44.9 °F 30.04 in ENE 12.0 mph 17.0 mph 53% 0.00 in
17:05 61.6 °F 43.8 °F 30.03 in ENE 13.0 mph 16.0 mph 52% 0.00 in
17:10 61.4 °F 44.6 °F 30.03 in ENE 9.0 mph 15.0 mph 54% 0.00 in
17:15 61.8 °F 45.0 °F 30.03 in NE 8.0 mph 15.0 mph 54% 0.00 in
17:20 61.3 °F 44.0 °F 30.03 in ENE 10.0 mph 17.0 mph 53% 0.00 in
17:25 61.5 °F 44.7 °F 30.03 in NNE 5.0 mph 12.0 mph 54% 0.00 in
17:30 61.1 °F 43.8 °F 30.03 in NNE 9.0 mph 16.0 mph 53% 0.00 in
17:35 60.9 °F 43.6 °F 30.03 in NNE 4.0 mph 12.0 mph 53% 0.00 in
17:40 60.8 °F 44.0 °F 30.03 in NE 7.0 mph 12.0 mph 54% 0.00 in
17:45 61.0 °F 43.2 °F 30.03 in NE 6.0 mph 16.0 mph 52% 0.00 in
17:50 60.6 °F 42.9 °F 30.03 in NE 8.0 mph 17.0 mph 52% 0.00 in
17:55 60.2 °F 43.0 °F 30.03 in NE 8.0 mph 17.0 mph 53% 0.00 in
18:00 59.7 °F 42.0 °F 30.02 in NE 8.0 mph 18.0 mph 52% 0.00 in
18:05 59.6 °F 42.4 °F 30.02 in ENE 11.0 mph 16.0 mph 53% 0.00 in
18:10 59.3 °F 42.6 °F 30.03 in NE 8.0 mph 16.0 mph 54% 0.00 in
18:15 59.1 °F 42.0 °F 30.02 in NE 7.0 mph 17.0 mph 53% 0.00 in
18:20 58.9 °F 42.8 °F 30.02 in NE 6.0 mph 21.0 mph 55% 0.00 in
18:25 59.1 °F 42.0 °F 30.02 in NE 6.0 mph 13.0 mph 53% 0.00 in
18:30 59.2 °F 42.6 °F 30.02 in NE 3.0 mph 13.0 mph 54% 0.00 in
18:35 58.7 °F 41.6 °F 30.02 in NNE 4.0 mph 16.0 mph 53% 0.00 in
18:40 58.4 °F 41.8 °F 30.02 in ENE 13.0 mph 15.0 mph 54% 0.00 in
18:45 58.1 °F 41.0 °F 30.02 in NE 7.0 mph 17.0 mph 53% 0.00 in
18:50 57.5 °F 41.0 °F 30.02 in NE 9.0 mph 18.0 mph 54% 0.00 in
18:55 57.2 °F 40.7 °F 30.02 in NE 9.0 mph 18.0 mph 54% 0.00 in
19:00 56.8 °F 40.8 °F 30.02 in NE 3.0 mph 14.0 mph 55% 0.00 in
19:05 56.6 °F 40.1 °F 30.02 in NE 11.0 mph 17.0 mph 54% 0.00 in
19:10 56.2 °F 40.2 °F 30.02 in NE 7.0 mph 16.0 mph 55% 0.00 in
19:15 56.0 °F 40.1 °F 30.02 in NE 8.0 mph 16.0 mph 55% 0.00 in
19:20 55.7 °F 39.8 °F 30.02 in NE 8.0 mph 15.0 mph 55% 0.00 in
19:25 55.4 °F 40.0 °F 30.02 in NNE 4.0 mph 15.0 mph 56% 0.00 in
19:30 55.0 °F 39.6 °F 30.02 in NE 6.0 mph 15.0 mph 56% 0.00 in
19:35 54.7 °F 39.3 °F 30.02 in NE 5.0 mph 15.0 mph 56% 0.00 in
19:40 54.6 °F 39.7 °F 30.02 in ENE 7.0 mph 13.0 mph 57% 0.00 in
19:45 54.4 °F 39.0 °F 30.02 in NE 7.0 mph 13.0 mph 56% 0.00 in
19:50 54.1 °F 38.7 °F 30.02 in NE 8.0 mph 15.0 mph 56% 0.00 in
19:55 53.9 °F 38.1 °F 30.03 in ESE 7.0 mph 15.0 mph 55% 0.00 in
20:00 53.7 °F 38.4 °F 30.03 in NE 7.0 mph 14.0 mph 56% 0.00 in
20:05 53.5 °F 38.2 °F 30.03 in ENE 7.0 mph 11.0 mph 56% 0.00 in
20:10 53.3 °F 38.0 °F 30.03 in ENE 6.0 mph 14.0 mph 56% 0.00 in
20:20 52.7 °F 37.0 °F 30.03 in ENE 8.0 mph 17.0 mph 55% 0.00 in
20:25 52.5 °F 37.2 °F 30.03 in ENE 8.0 mph 17.0 mph 56% 0.00 in
20:30 52.2 °F 36.5 °F 30.03 in ENE 8.0 mph 17.0 mph 55% 0.00 in
20:35 52.1 °F 36.9 °F 30.03 in ENE 8.0 mph 17.0 mph 56% 0.00 in
20:40 51.8 °F 37.0 °F 30.04 in ENE 6.0 mph 14.0 mph 57% 0.00 in
20:45 51.6 °F 36.9 °F 30.04 in East 7.0 mph 13.0 mph 57% 0.00 in
20:50 51.5 °F 36.8 °F 30.04 in ENE 3.0 mph 13.0 mph 57% 0.00 in
20:55 51.2 °F 36.5 °F 30.04 in ENE 8.0 mph 12.0 mph 57% 0.00 in
21:00 51.2 °F 36.9 °F 30.04 in ENE 5.0 mph 12.0 mph 58% 0.00 in
21:05 51.1 °F 36.8 °F 30.04 in ENE 2.0 mph 11.0 mph 58% 0.00 in
21:10 51.1 °F 36.8 °F 30.04 in ENE 6.0 mph 15.0 mph 58% 0.00 in
21:15 51.1 °F 37.3 °F 30.04 in ENE 6.0 mph 15.0 mph 59% 0.00 in
21:20 51.1 °F 37.3 °F 30.04 in ENE 6.0 mph 13.0 mph 59% 0.00 in
21:25 51.1 °F 37.3 °F 30.05 in ENE 7.0 mph 14.0 mph 59% 0.00 in
21:30 51.1 °F 37.3 °F 30.05 in NE 4.0 mph 14.0 mph 59% 0.00 in
21:35 51.0 °F 37.2 °F 30.05 in ENE 5.0 mph 15.0 mph 59% 0.00 in
21:40 51.0 °F 37.2 °F 30.05 in ENE 6.0 mph 15.0 mph 59% 0.00 in
21:45 50.9 °F 37.5 °F 30.04 in ENE 6.0 mph 13.0 mph 60% 0.00 in
21:50 50.9 °F 37.5 °F 30.04 in ENE 6.0 mph 13.0 mph 60% 0.00 in
21:55 50.8 °F 37.4 °F 30.04 in ENE 6.0 mph 13.0 mph 60% 0.00 in
22:00 50.7 °F 37.7 °F 30.05 in East 8.0 mph 12.0 mph 61% 0.00 in
22:05 50.7 °F 37.7 °F 30.05 in ENE 4.0 mph 10.0 mph 61% 0.00 in
22:10 50.7 °F 37.7 °F 30.05 in ENE 6.0 mph 13.0 mph 61% 0.00 in
22:15 50.6 °F 37.6 °F 30.05 in ESE 9.0 mph 17.0 mph 61% 0.00 in
22:20 50.5 °F 37.5 °F 30.05 in ENE 4.0 mph 13.0 mph 61% 0.00 in
22:25 50.4 °F 37.9 °F 30.05 in East 5.0 mph 12.0 mph 62% 0.00 in
22:30 50.4 °F 37.9 °F 30.05 in ENE 3.0 mph 11.0 mph 62% 0.00 in
22:35 50.2 °F 37.7 °F 30.05 in East 5.0 mph 11.0 mph 62% 0.00 in
22:40 50.2 °F 37.7 °F 30.05 in East 5.0 mph 12.0 mph 62% 0.00 in
22:45 50.1 °F 37.6 °F 30.04 in East 6.0 mph 13.0 mph 62% 0.00 in
22:50 49.9 °F 37.8 °F 30.04 in ENE 5.0 mph 13.0 mph 63% 0.00 in
22:55 49.9 °F 37.8 °F 30.04 in ENE 5.0 mph 11.0 mph 63% 0.00 in
23:00 49.8 °F 37.7 °F 30.04 in ENE 5.0 mph 11.0 mph 63% 0.00 in
23:05 49.7 °F 38.0 °F 30.04 in NE 3.0 mph 10.0 mph 64% 0.00 in
23:10 49.7 °F 37.6 °F 30.04 in East 2.0 mph 9.0 mph 63% 0.00 in
23:20 49.7 °F 37.6 °F 30.04 in East 6.0 mph 9.0 mph 63% 0.00 in
23:25 49.7 °F 38.0 °F 30.04 in ENE 2.0 mph 8.0 mph 64% 0.00 in
23:30 49.7 °F 38.0 °F 30.04 in NE 4.0 mph 9.0 mph 64% 0.00 in
23:35 49.7 °F 37.6 °F 30.04 in NE 4.0 mph 7.0 mph 63% 0.00 in
23:40 49.8 °F 38.1 °F 30.04 in ENE 4.0 mph 7.0 mph 64% 0.00 in
23:45 49.8 °F 37.7 °F 30.04 in ENE 4.0 mph 10.0 mph 63% 0.00 in
23:50 49.7 °F 38.0 °F 30.03 in ENE 4.0 mph 10.0 mph 64% 0.00 in
23:55 49.6 °F 37.9 °F 30.03 in ENE 3.0 mph 9.0 mph 64% 0.00 in
Buffalo, New York, USA
Compliments of Weather Underground - 2.5 mb